createdAt,value
2023-04-24T00:00:17.034Z,99520.91
2023-04-24T00:05:19.914Z,99508.03
2023-04-24T00:10:22.955Z,99515.38
2023-04-24T00:15:27.116Z,99504.84
2023-04-24T00:20:30.378Z,99501.28
2023-04-24T00:25:33.100Z,99487.03
2023-04-24T00:30:37.231Z,99476.50
2023-04-24T00:35:39.930Z,99470.19
2023-04-24T00:40:42.625Z,99453.63
2023-04-24T00:45:46.767Z,99444.69
2023-04-24T00:50:49.456Z,99435.50
2023-04-24T00:55:52.674Z,99430.78
2023-04-24T01:00:58.593Z,99442.22
2023-04-24T01:06:01.815Z,99431.34
2023-04-24T01:11:06.561Z,99434.50
2023-04-24T01:16:10.945Z,99446.06
2023-04-24T01:21:15.763Z,99448.41
2023-04-24T01:26:21.081Z,99457.78
2023-04-24T01:31:24.328Z,99467.41
2023-04-24T01:36:29.189Z,99473.53
2023-04-24T01:41:33.698Z,99486.56
2023-04-24T01:46:36.829Z,99488.09
2023-04-24T01:51:40.770Z,99481.16
2023-04-24T01:56:45.359Z,99474.94
2023-04-24T02:01:48.161Z,99487.28
2023-04-24T02:06:50.922Z,99502.13
2023-04-24T02:11:54.973Z,99510.53
2023-04-24T02:16:57.812Z,99519.28
2023-04-24T02:22:00.513Z,99529.00
2023-04-24T02:27:05.421Z,99533.38
2023-04-24T02:32:08.178Z,99551.06
2023-04-24T02:37:10.895Z,99553.78
2023-04-24T02:42:14.927Z,99576.78
2023-04-24T02:47:17.628Z,99598.94
2023-04-24T02:52:20.289Z,99607.41
2023-04-24T02:57:24.305Z,99619.72
2023-04-24T03:02:27.315Z,99626.91
2023-04-24T03:07:30.647Z,99616.44
2023-04-24T03:12:34.697Z,99616.44
2023-04-24T03:17:37.955Z,99622.56
2023-04-24T03:22:40.784Z,99635.63
2023-04-24T03:27:45.877Z,99663.00
2023-04-24T03:32:57.393Z,99667.19
2023-04-24T03:38:05.594Z,99662.34
2023-04-24T03:43:28.365Z,99667.88
2023-04-24T03:48:33.667Z,99668.72
2023-04-24T03:53:37.949Z,99673.00
2023-04-24T03:58:42.331Z,99660.44
2023-04-24T04:03:46.329Z,99650.03
2023-04-24T04:08:50.327Z,99628.59
2023-04-24T04:13:54.432Z,99613.66
2023-04-24T04:18:58.703Z,99605.41
2023-04-24T04:24:01.745Z,99605.56
2023-04-24T04:29:14.018Z,99612.34
2023-04-24T04:34:20.489Z,99614.81
2023-04-24T04:39:23.428Z,99601.16
2023-04-24T04:44:36.744Z,99601.38
2023-04-24T04:49:40.927Z,99597.81
2023-04-24T04:54:50.949Z,99596.34
2023-04-24T04:59:55.901Z,99595.00
2023-04-24T05:05:12.548Z,99599.31
2023-04-24T05:10:15.671Z,99608.78
2023-04-24T05:15:20.019Z,99614.75
2023-04-24T05:20:22.945Z,99600.22
2023-04-24T05:25:25.964Z,99615.59
2023-04-24T05:30:34.424Z,99629.00
2023-04-24T05:35:37.658Z,99617.63
2023-04-24T05:40:40.632Z,99618.47
2023-04-24T05:45:44.579Z,99615.56
2023-04-24T05:50:48.901Z,99616.41
2023-04-24T05:55:51.594Z,99615.84
2023-04-24T06:00:56.133Z,99620.59
2023-04-24T06:05:59.051Z,99603.88
2023-04-24T06:11:04.401Z,99600.44
2023-04-24T06:16:09.569Z,99603.88
2023-04-24T06:21:15.460Z,99603.44
2023-04-24T06:26:18.607Z,99593.72
2023-04-24T06:31:22.826Z,99585.13
2023-04-24T06:36:25.586Z,99565.38
2023-04-24T06:41:28.251Z,99558.13
2023-04-24T06:46:32.335Z,99545.53
2023-04-24T06:51:35.045Z,99524.47
2023-04-24T06:56:37.911Z,99530.91
2023-04-24T07:01:41.906Z,99515.88
2023-04-24T07:06:44.819Z,99497.41
2023-04-24T07:11:48.087Z,99499.72
2023-04-24T07:16:52.112Z,99487.78
2023-04-24T07:21:56.051Z,99479.97
2023-04-24T07:26:58.803Z,99477.75
2023-04-24T07:32:04.231Z,99484.00
2023-04-24T07:37:07.297Z,99473.78
2023-04-24T07:42:09.982Z,99474.25
2023-04-24T07:47:15.673Z,99465.22
2023-04-24T07:52:18.312Z,99477.34
2023-04-24T07:57:21.089Z,99474.75
2023-04-24T08:02:27.597Z,99479.69
2023-04-24T08:07:30.845Z,99472.16
2023-04-24T08:12:33.580Z,99483.88
2023-04-24T08:17:37.690Z,99496.25
2023-04-24T08:22:40.347Z,99497.97
2023-04-24T08:27:43.011Z,99495.97
2023-04-24T08:32:47.080Z,99506.91
2023-04-24T08:37:49.855Z,99510.31
2023-04-24T08:42:56.056Z,99508.13
2023-04-24T08:48:00.620Z,99511.72
2023-04-24T08:53:05.155Z,99517.19
2023-04-24T08:58:08.043Z,99500.53
2023-04-24T09:03:12.182Z,99498.09
2023-04-24T09:08:15.748Z,99493.13
2023-04-24T09:13:18.463Z,99509.47
2023-04-24T09:18:22.554Z,99501.97
2023-04-24T09:23:25.280Z,99491.22
2023-04-24T09:28:29.913Z,99497.81
2023-04-24T09:33:34.000Z,99474.63
2023-04-24T09:38:37.719Z,99490.91
2023-04-24T09:43:40.574Z,99490.44
2023-04-24T09:48:44.542Z,99500.06
2023-04-24T09:53:48.135Z,99525.03
2023-04-24T09:58:56.650Z,99559.91
2023-04-24T10:04:00.675Z,99567.41
2023-04-24T10:09:04.596Z,99579.50
2023-04-24T10:14:07.740Z,99568.88
2023-04-24T10:19:14.095Z,99588.41
2023-04-24T10:24:17.849Z,99622.81
2023-04-24T10:29:22.462Z,99639.59
2023-04-24T10:34:26.870Z,99697.03
2023-04-24T10:39:29.827Z,99750.16
2023-04-24T10:44:38.570Z,99789.13
2023-04-24T10:49:42.665Z,99811.34
2023-04-24T10:54:47.446Z,99849.53
2023-04-24T10:59:51.448Z,99920.63
2023-04-24T11:04:56.274Z,99967.41
2023-04-24T11:10:02.011Z,100000.44
2023-04-24T11:15:05.334Z,100050.97
2023-04-24T11:25:34.699Z,100115.13
2023-04-24T11:30:37.524Z,100151.72
2023-04-24T11:35:44.966Z,100208.22
2023-04-24T11:40:48.596Z,100271.25
2023-04-24T11:45:51.747Z,100319.31
2023-04-24T11:50:56.001Z,100364.41
2023-04-24T11:55:58.663Z,100418.66
2023-04-24T12:01:02.179Z,100471.06
2023-04-24T12:06:10.289Z,100501.31
2023-04-24T12:11:13.518Z,100556.53
2023-04-24T12:16:16.222Z,100602.94
2023-04-24T12:21:27.426Z,100621.34
2023-04-24T12:26:30.079Z,100658.03
2023-04-24T12:31:33.352Z,100691.88
2023-04-24T12:36:38.663Z,100712.06
2023-04-24T12:41:52.433Z,100761.88
2023-04-24T12:46:55.225Z,100798.41
2023-04-24T12:51:59.283Z,100902.06
2023-04-24T12:57:02.418Z,100948.84
2023-04-24T13:02:05.203Z,100977.75
2023-04-24T13:07:09.205Z,101016.75
2023-04-24T13:12:12.482Z,101038.22
2023-04-24T13:17:15.348Z,101085.53
2023-04-24T13:22:20.481Z,101116.16
2023-04-24T13:27:23.330Z,101132.28
2023-04-24T13:32:26.286Z,101143.78
2023-04-24T13:37:30.461Z,101146.66
2023-04-24T13:42:33.230Z,101157.88
2023-04-24T13:47:37.086Z,101174.47
2023-04-24T13:52:41.601Z,101154.34
2023-04-24T13:57:44.373Z,101176.84
2023-04-24T14:02:47.279Z,101178.72
2023-04-24T14:07:51.932Z,101158.34
2023-04-24T14:12:54.804Z,101137.47
2023-04-24T14:17:57.457Z,101115.16
2023-04-24T14:23:01.523Z,101067.88
2023-04-24T14:28:04.269Z,100995.31
2023-04-24T14:33:06.994Z,100985.09
2023-04-24T14:38:11.345Z,100916.78
2023-04-24T14:43:14.001Z,100836.13
2023-04-24T14:48:17.454Z,100812.19
2023-04-24T14:53:21.609Z,100745.66
2023-04-24T14:58:24.321Z,100706.81
2023-04-24T15:03:28.046Z,100644.28
2023-04-24T15:08:32.323Z,100620.25
2023-04-24T15:13:35.068Z,100573.81
2023-04-24T15:18:37.882Z,100557.97
2023-04-24T15:23:42.088Z,100544.97
2023-04-24T15:28:44.955Z,100527.81
2023-04-24T15:33:47.959Z,100558.59
2023-04-24T15:38:52.177Z,100570.03
2023-04-24T15:43:54.924Z,100566.31
2023-04-24T15:48:57.728Z,100578.81
2023-04-24T15:54:01.854Z,100576.19
2023-04-24T15:59:05.004Z,100550.59
2023-04-24T16:04:08.145Z,100580.28
2023-04-24T16:09:13.371Z,100607.09
2023-04-24T16:14:16.035Z,100606.66
2023-04-24T16:19:18.819Z,100634.53
2023-04-24T16:24:23.837Z,100623.75
2023-04-24T16:29:26.494Z,100619.00
2023-04-24T16:34:29.287Z,100596.66
2023-04-24T16:39:33.417Z,100583.13
2023-04-24T16:44:36.451Z,100573.41
2023-04-24T16:49:39.115Z,100544.97
2023-04-24T16:54:43.187Z,100529.78
2023-04-24T16:59:45.894Z,100498.59
2023-04-24T17:04:48.649Z,100465.91
2023-04-24T17:09:52.838Z,100437.00
2023-04-24T17:14:55.931Z,100456.72
2023-04-24T17:19:59.878Z,100456.16
2023-04-24T17:25:06.260Z,100443.16
2023-04-24T17:30:10.003Z,100453.09
2023-04-24T17:35:12.980Z,100449.00
2023-04-24T17:40:17.208Z,100422.19
2023-04-24T17:45:19.908Z,100433.63
2023-04-24T17:50:22.728Z,100436.25
2023-04-24T17:55:26.865Z,100455.53
2023-04-24T18:00:29.920Z,100461.69
2023-04-24T18:05:33.982Z,100472.34
2023-04-24T18:10:38.007Z,100490.59
2023-04-24T18:15:43.089Z,100489.63
2023-04-24T18:20:46.806Z,100477.53
2023-04-24T18:25:50.844Z,100489.13
2023-04-24T18:30:53.566Z,100491.00
2023-04-24T18:35:58.239Z,100497.44
2023-04-24T18:41:03.432Z,100474.22
2023-04-24T18:46:06.108Z,100468.41
2023-04-24T18:51:09.833Z,100470.22
2023-04-24T18:56:14.034Z,100466.38
2023-04-24T19:01:16.851Z,100470.28
2023-04-24T19:06:19.693Z,100466.88
2023-04-24T19:11:23.756Z,100465.81
2023-04-24T19:16:26.503Z,100463.44
2023-04-24T19:21:29.319Z,100450.53
2023-04-24T19:26:33.300Z,100439.16
2023-04-24T19:31:35.974Z,100426.28
2023-04-24T19:36:38.888Z,100417.91
2023-04-24T19:41:42.912Z,100415.38
2023-04-24T19:46:45.645Z,100413.56
2023-04-24T19:51:48.305Z,100395.38
2023-04-24T19:56:52.712Z,100383.38
2023-04-24T20:01:55.524Z,100392.88
2023-04-24T20:06:58.390Z,100400.50
2023-04-24T20:12:02.751Z,100400.88
2023-04-24T20:17:05.394Z,100406.03
2023-04-24T20:22:08.091Z,100408.34
2023-04-24T20:27:13.072Z,100413.03
2023-04-24T20:32:15.779Z,100418.94
2023-04-24T20:37:18.489Z,100434.44
2023-04-24T20:42:23.029Z,100438.28
2023-04-24T20:47:25.775Z,100451.91
2023-04-24T20:52:28.532Z,100457.59
2023-04-24T20:57:32.587Z,100474.66
2023-04-24T21:02:35.737Z,100475.03
2023-04-24T21:07:38.558Z,100479.53
2023-04-24T21:12:42.627Z,100496.97
2023-04-24T21:17:45.655Z,100498.69
2023-04-24T21:22:48.397Z,100511.22
2023-04-24T21:27:52.406Z,100514.63
2023-04-24T21:32:55.964Z,100513.91
2023-04-24T21:37:58.686Z,100526.81
2023-04-24T21:43:02.776Z,100540.72
2023-04-24T21:48:06.024Z,100527.16
2023-04-24T21:53:08.740Z,100532.91
2023-04-24T21:58:12.818Z,100546.19
2023-04-24T22:03:15.655Z,100551.81
2023-04-24T22:08:18.544Z,100550.84
2023-04-24T22:13:22.641Z,100566.19
2023-04-24T22:18:33.354Z,100565.97
2023-04-24T22:23:36.198Z,100584.16
2023-04-24T22:28:40.337Z,100580.66
2023-04-24T22:33:43.216Z,100588.94
2023-04-24T22:38:45.958Z,100591.22
2023-04-24T22:43:50.194Z,100600.06
2023-04-24T22:48:53.123Z,100598.59
2023-04-24T22:53:56.300Z,100609.22
2023-04-24T22:59:00.278Z,100612.84
2023-04-24T23:04:03.097Z,100601.59
2023-04-24T23:09:05.805Z,100602.81
2023-04-24T23:14:10.176Z,100606.34
2023-04-24T23:19:12.888Z,100609.22
2023-04-24T23:24:15.618Z,100620.38
2023-04-24T23:29:22.995Z,100619.56
2023-04-24T23:34:25.672Z,100625.53
2023-04-24T23:39:28.502Z,100618.66
2023-04-24T23:44:32.511Z,100608.22
2023-04-24T23:49:36.290Z,100604.88
2023-04-24T23:54:39.001Z,100588.59
2023-04-24T23:59:42.980Z,100583.25
